sensor_id;sensor_type;location;lat;lon;timestamp;P1;durP1;ratioP1;P2;durP2;ratioP2
71606;SDS011;60641;53.556;9.914;2024-02-21T00:02:20;26.90;;;10.90;;
71606;SDS011;60641;53.556;9.914;2024-02-21T00:04:47;25.30;;;10.90;;
71606;SDS011;60641;53.556;9.914;2024-02-21T00:07:13;24.50;;;11.50;;
71606;SDS011;60641;53.556;9.914;2024-02-21T00:09:40;25.60;;;11.50;;
71606;SDS011;60641;53.556;9.914;2024-02-21T00:12:06;25.30;;;11.30;;
71606;SDS011;60641;53.556;9.914;2024-02-21T00:14:33;25.40;;;11.00;;
71606;SDS011;60641;53.556;9.914;2024-02-21T00:16:59;25.40;;;11.90;;
71606;SDS011;60641;53.556;9.914;2024-02-21T00:19:26;23.70;;;11.30;;
71606;SDS011;60641;53.556;9.914;2024-02-21T00:21:52;26.90;;;11.80;;
71606;SDS011;60641;53.556;9.914;2024-02-21T00:24:19;30.70;;;13.00;;
71606;SDS011;60641;53.556;9.914;2024-02-21T00:26:45;27.90;;;11.70;;
71606;SDS011;60641;53.556;9.914;2024-02-21T00:29:12;29.20;;;12.20;;
71606;SDS011;60641;53.556;9.914;2024-02-21T00:31:38;25.50;;;12.20;;
71606;SDS011;60641;53.556;9.914;2024-02-21T00:34:04;25.70;;;11.90;;
71606;SDS011;60641;53.556;9.914;2024-02-21T00:36:31;29.40;;;12.30;;
71606;SDS011;60641;53.556;9.914;2024-02-21T00:38:57;24.80;;;11.50;;
71606;SDS011;60641;53.556;9.914;2024-02-21T00:41:24;28.00;;;11.50;;
71606;SDS011;60641;53.556;9.914;2024-02-21T00:43:50;26.40;;;11.70;;
71606;SDS011;60641;53.556;9.914;2024-02-21T00:46:17;30.40;;;12.20;;
71606;SDS011;60641;53.556;9.914;2024-02-21T00:48:43;24.20;;;11.70;;
71606;SDS011;60641;53.556;9.914;2024-02-21T00:51:10;27.00;;;11.80;;
71606;SDS011;60641;53.556;9.914;2024-02-21T00:53:36;25.50;;;12.30;;
71606;SDS011;60641;53.556;9.914;2024-02-21T00:56:05;25.20;;;12.30;;
71606;SDS011;60641;53.556;9.914;2024-02-21T00:58:32;25.70;;;12.70;;
71606;SDS011;60641;53.556;9.914;2024-02-21T01:00:58;28.50;;;12.30;;
71606;SDS011;60641;53.556;9.914;2024-02-21T01:03:24;25.50;;;12.40;;
71606;SDS011;60641;53.556;9.914;2024-02-21T01:05:51;30.40;;;12.40;;
71606;SDS011;60641;53.556;9.914;2024-02-21T01:08:17;28.90;;;12.40;;
71606;SDS011;60641;53.556;9.914;2024-02-21T01:10:44;26.60;;;12.30;;
71606;SDS011;60641;53.556;9.914;2024-02-21T01:13:10;25.90;;;12.40;;
71606;SDS011;60641;53.556;9.914;2024-02-21T01:15:37;27.30;;;12.60;;
71606;SDS011;60641;53.556;9.914;2024-02-21T01:18:03;24.70;;;12.70;;
71606;SDS011;60641;53.556;9.914;2024-02-21T01:20:31;28.40;;;12.30;;
71606;SDS011;60641;53.556;9.914;2024-02-21T01:22:57;24.80;;;12.10;;
71606;SDS011;60641;53.556;9.914;2024-02-21T01:25:24;27.30;;;11.80;;
71606;SDS011;60641;53.556;9.914;2024-02-21T01:27:50;25.20;;;11.30;;
71606;SDS011;60641;53.556;9.914;2024-02-21T01:30:17;25.30;;;12.20;;
71606;SDS011;60641;53.556;9.914;2024-02-21T01:32:44;25.20;;;12.40;;
71606;SDS011;60641;53.556;9.914;2024-02-21T01:35:10;26.50;;;12.30;;
71606;SDS011;60641;53.556;9.914;2024-02-21T01:37:37;24.80;;;11.90;;
71606;SDS011;60641;53.556;9.914;2024-02-21T01:40:04;24.20;;;11.90;;
71606;SDS011;60641;53.556;9.914;2024-02-21T01:42:31;26.20;;;13.00;;
71606;SDS011;60641;53.556;9.914;2024-02-21T01:44:57;29.00;;;12.80;;
71606;SDS011;60641;53.556;9.914;2024-02-21T01:47:24;25.40;;;12.70;;
71606;SDS011;60641;53.556;9.914;2024-02-21T01:49:50;28.10;;;12.60;;
71606;SDS011;60641;53.556;9.914;2024-02-21T01:52:17;23.70;;;12.80;;
71606;SDS011;60641;53.556;9.914;2024-02-21T01:54:44;26.10;;;13.10;;
71606;SDS011;60641;53.556;9.914;2024-02-21T01:57:10;27.30;;;14.50;;
71606;SDS011;60641;53.556;9.914;2024-02-21T01:59:37;28.40;;;13.10;;
71606;SDS011;60641;53.556;9.914;2024-02-21T02:02:05;23.80;;;13.60;;
71606;SDS011;60641;53.556;9.914;2024-02-21T02:04:31;29.10;;;13.90;;
71606;SDS011;60641;53.556;9.914;2024-02-21T02:06:59;26.00;;;14.70;;
71606;SDS011;60641;53.556;9.914;2024-02-21T02:09:26;24.50;;;13.20;;
71606;SDS011;60641;53.556;9.914;2024-02-21T02:11:52;30.50;;;15.40;;
71606;SDS011;60641;53.556;9.914;2024-02-21T02:14:19;28.30;;;14.10;;
71606;SDS011;60641;53.556;9.914;2024-02-21T02:16:46;29.60;;;14.40;;
71606;SDS011;60641;53.556;9.914;2024-02-21T02:19:13;28.20;;;14.70;;
71606;SDS011;60641;53.556;9.914;2024-02-21T02:21:42;28.40;;;14.00;;
71606;SDS011;60641;53.556;9.914;2024-02-21T02:24:19;26.00;;;14.60;;
71606;SDS011;60641;53.556;9.914;2024-02-21T02:26:46;26.50;;;13.80;;
71606;SDS011;60641;53.556;9.914;2024-02-21T02:29:13;27.00;;;14.30;;
71606;SDS011;60641;53.556;9.914;2024-02-21T02:31:39;27.00;;;15.70;;
71606;SDS011;60641;53.556;9.914;2024-02-21T02:34:06;29.70;;;15.20;;
71606;SDS011;60641;53.556;9.914;2024-02-21T02:36:33;29.20;;;14.70;;
71606;SDS011;60641;53.556;9.914;2024-02-21T02:38:59;27.20;;;14.80;;
71606;SDS011;60641;53.556;9.914;2024-02-21T02:41:26;30.20;;;14.90;;
71606;SDS011;60641;53.556;9.914;2024-02-21T02:43:52;33.60;;;15.60;;
71606;SDS011;60641;53.556;9.914;2024-02-21T02:46:19;28.90;;;15.30;;
71606;SDS011;60641;53.556;9.914;2024-02-21T02:48:45;32.00;;;15.30;;
71606;SDS011;60641;53.556;9.914;2024-02-21T02:51:12;28.60;;;15.10;;
71606;SDS011;60641;53.556;9.914;2024-02-21T02:53:38;28.30;;;15.00;;
71606;SDS011;60641;53.556;9.914;2024-02-21T02:56:05;29.20;;;15.20;;
71606;SDS011;60641;53.556;9.914;2024-02-21T02:58:31;34.50;;;15.50;;
71606;SDS011;60641;53.556;9.914;2024-02-21T03:00:57;28.50;;;15.60;;
71606;SDS011;60641;53.556;9.914;2024-02-21T03:03:24;31.60;;;15.00;;
71606;SDS011;60641;53.556;9.914;2024-02-21T03:05:50;29.80;;;14.40;;
71606;SDS011;60641;53.556;9.914;2024-02-21T03:08:17;32.20;;;15.00;;
71606;SDS011;60641;53.556;9.914;2024-02-21T03:10:43;33.30;;;14.80;;
71606;SDS011;60641;53.556;9.914;2024-02-21T03:13:10;30.40;;;15.60;;
71606;SDS011;60641;53.556;9.914;2024-02-21T03:15:36;26.50;;;14.50;;
71606;SDS011;60641;53.556;9.914;2024-02-21T03:18:03;33.90;;;15.80;;
71606;SDS011;60641;53.556;9.914;2024-02-21T03:20:30;29.50;;;15.50;;
71606;SDS011;60641;53.556;9.914;2024-02-21T03:22:56;30.30;;;15.40;;
71606;SDS011;60641;53.556;9.914;2024-02-21T03:25:23;27.60;;;13.70;;
71606;SDS011;60641;53.556;9.914;2024-02-21T03:27:49;27.00;;;14.30;;
71606;SDS011;60641;53.556;9.914;2024-02-21T03:30:16;29.30;;;14.70;;
71606;SDS011;60641;53.556;9.914;2024-02-21T03:32:42;33.30;;;15.90;;
71606;SDS011;60641;53.556;9.914;2024-02-21T03:35:09;29.60;;;15.10;;
71606;SDS011;60641;53.556;9.914;2024-02-21T03:37:35;29.80;;;14.50;;
71606;SDS011;60641;53.556;9.914;2024-02-21T03:40:02;31.10;;;15.10;;
71606;SDS011;60641;53.556;9.914;2024-02-21T03:42:29;33.00;;;15.20;;
71606;SDS011;60641;53.556;9.914;2024-02-21T03:44:57;28.50;;;13.60;;
71606;SDS011;60641;53.556;9.914;2024-02-21T03:47:24;30.10;;;14.00;;
71606;SDS011;60641;53.556;9.914;2024-02-21T03:49:50;30.00;;;14.20;;
71606;SDS011;60641;53.556;9.914;2024-02-21T03:52:17;28.90;;;13.10;;
71606;SDS011;60641;53.556;9.914;2024-02-21T03:54:43;29.40;;;14.10;;
71606;SDS011;60641;53.556;9.914;2024-02-21T03:57:10;26.20;;;13.10;;
71606;SDS011;60641;53.556;9.914;2024-02-21T03:59:37;29.80;;;13.90;;
71606;SDS011;60641;53.556;9.914;2024-02-21T04:02:06;30.10;;;13.60;;
71606;SDS011;60641;53.556;9.914;2024-02-21T04:04:35;27.00;;;13.60;;
71606;SDS011;60641;53.556;9.914;2024-02-21T04:07:03;26.10;;;12.50;;
71606;SDS011;60641;53.556;9.914;2024-02-21T04:09:33;25.40;;;13.30;;
71606;SDS011;60641;53.556;9.914;2024-02-21T04:12:00;28.20;;;12.90;;
71606;SDS011;60641;53.556;9.914;2024-02-21T04:14:27;27.70;;;12.80;;
71606;SDS011;60641;53.556;9.914;2024-02-21T04:16:53;26.90;;;13.20;;
71606;SDS011;60641;53.556;9.914;2024-02-21T04:19:20;28.00;;;13.00;;
71606;SDS011;60641;53.556;9.914;2024-02-21T04:21:46;26.10;;;13.10;;
71606;SDS011;60641;53.556;9.914;2024-02-21T04:24:13;21.80;;;12.10;;
71606;SDS011;60641;53.556;9.914;2024-02-21T04:26:39;25.10;;;12.70;;
71606;SDS011;60641;53.556;9.914;2024-02-21T04:29:06;27.60;;;12.90;;
71606;SDS011;60641;53.556;9.914;2024-02-21T04:31:33;24.00;;;12.40;;
71606;SDS011;60641;53.556;9.914;2024-02-21T04:34:00;23.70;;;12.30;;
71606;SDS011;60641;53.556;9.914;2024-02-21T04:36:27;23.20;;;11.40;;
71606;SDS011;60641;53.556;9.914;2024-02-21T04:38:53;23.90;;;11.80;;
71606;SDS011;60641;53.556;9.914;2024-02-21T04:41:19;20.00;;;11.20;;
71606;SDS011;60641;53.556;9.914;2024-02-21T04:43:46;20.80;;;11.10;;
71606;SDS011;60641;53.556;9.914;2024-02-21T04:46:16;26.60;;;12.10;;
71606;SDS011;60641;53.556;9.914;2024-02-21T04:48:42;22.70;;;10.70;;
71606;SDS011;60641;53.556;9.914;2024-02-21T04:51:09;21.90;;;11.00;;
71606;SDS011;60641;53.556;9.914;2024-02-21T04:53:36;23.60;;;10.40;;
71606;SDS011;60641;53.556;9.914;2024-02-21T04:56:02;21.30;;;10.20;;
71606;SDS011;60641;53.556;9.914;2024-02-21T04:58:29;19.80;;;10.20;;
71606;SDS011;60641;53.556;9.914;2024-02-21T05:00:56;20.70;;;10.30;;
71606;SDS011;60641;53.556;9.914;2024-02-21T05:03:23;17.90;;;9.00;;
71606;SDS011;60641;53.556;9.914;2024-02-21T05:05:49;18.60;;;9.70;;
71606;SDS011;60641;53.556;9.914;2024-02-21T05:08:16;19.50;;;9.80;;
71606;SDS011;60641;53.556;9.914;2024-02-21T05:10:42;15.80;;;8.90;;
71606;SDS011;60641;53.556;9.914;2024-02-21T05:13:09;15.90;;;8.50;;
71606;SDS011;60641;53.556;9.914;2024-02-21T05:15:35;16.50;;;8.10;;
71606;SDS011;60641;53.556;9.914;2024-02-21T05:18:02;15.60;;;8.40;;
71606;SDS011;60641;53.556;9.914;2024-02-21T05:20:28;14.70;;;8.20;;
71606;SDS011;60641;53.556;9.914;2024-02-21T05:22:55;16.10;;;7.70;;
71606;SDS011;60641;53.556;9.914;2024-02-21T05:25:21;13.70;;;7.30;;
71606;SDS011;60641;53.556;9.914;2024-02-21T05:27:48;14.30;;;7.50;;
71606;SDS011;60641;53.556;9.914;2024-02-21T05:30:19;14.10;;;7.10;;
71606;SDS011;60641;53.556;9.914;2024-02-21T05:32:46;12.70;;;6.70;;
71606;SDS011;60641;53.556;9.914;2024-02-21T05:35:13;14.30;;;6.20;;
71606;SDS011;60641;53.556;9.914;2024-02-21T05:37:39;12.70;;;6.10;;
71606;SDS011;60641;53.556;9.914;2024-02-21T05:40:06;13.30;;;6.10;;
71606;SDS011;60641;53.556;9.914;2024-02-21T05:42:33;13.30;;;6.40;;
71606;SDS011;60641;53.556;9.914;2024-02-21T05:44:59;12.50;;;5.60;;
71606;SDS011;60641;53.556;9.914;2024-02-21T05:47:26;10.30;;;5.10;;
71606;SDS011;60641;53.556;9.914;2024-02-21T05:49:52;10.50;;;5.40;;
71606;SDS011;60641;53.556;9.914;2024-02-21T05:52:20;10.40;;;5.00;;
71606;SDS011;60641;53.556;9.914;2024-02-21T05:54:46;10.70;;;5.10;;
71606;SDS011;60641;53.556;9.914;2024-02-21T05:57:13;11.40;;;5.00;;
71606;SDS011;60641;53.556;9.914;2024-02-21T05:59:39;9.20;;;4.60;;
71606;SDS011;60641;53.556;9.914;2024-02-21T06:02:09;11.30;;;5.20;;
71606;SDS011;60641;53.556;9.914;2024-02-21T06:04:36;10.30;;;4.70;;
71606;SDS011;60641;53.556;9.914;2024-02-21T06:07:02;9.20;;;4.60;;
71606;SDS011;60641;53.556;9.914;2024-02-21T06:09:29;9.60;;;4.40;;
71606;SDS011;60641;53.556;9.914;2024-02-21T06:11:56;10.50;;;4.80;;
71606;SDS011;60641;53.556;9.914;2024-02-21T06:14:22;8.80;;;4.20;;
71606;SDS011;60641;53.556;9.914;2024-02-21T06:16:48;9.00;;;4.50;;
71606;SDS011;60641;53.556;9.914;2024-02-21T06:19:15;9.80;;;4.20;;
71606;SDS011;60641;53.556;9.914;2024-02-21T06:21:41;9.30;;;3.80;;
71606;SDS011;60641;53.556;9.914;2024-02-21T06:24:08;9.40;;;4.10;;
71606;SDS011;60641;53.556;9.914;2024-02-21T06:26:34;11.50;;;5.30;;
71606;SDS011;60641;53.556;9.914;2024-02-21T06:29:01;8.30;;;4.10;;
71606;SDS011;60641;53.556;9.914;2024-02-21T06:31:27;9.10;;;3.80;;
71606;SDS011;60641;53.556;9.914;2024-02-21T06:33:55;8.30;;;3.60;;
71606;SDS011;60641;53.556;9.914;2024-02-21T06:36:21;8.20;;;3.60;;
71606;SDS011;60641;53.556;9.914;2024-02-21T06:38:48;8.40;;;3.50;;
71606;SDS011;60641;53.556;9.914;2024-02-21T06:41:17;8.10;;;3.60;;
71606;SDS011;60641;53.556;9.914;2024-02-21T06:43:45;7.90;;;3.60;;
71606;SDS011;60641;53.556;9.914;2024-02-21T06:46:12;7.10;;;3.20;;
71606;SDS011;60641;53.556;9.914;2024-02-21T06:48:48;7.70;;;3.80;;
71606;SDS011;60641;53.556;9.914;2024-02-21T06:51:15;7.30;;;2.90;;
71606;SDS011;60641;53.556;9.914;2024-02-21T06:53:42;7.10;;;3.20;;
71606;SDS011;60641;53.556;9.914;2024-02-21T06:56:10;8.00;;;3.50;;
71606;SDS011;60641;53.556;9.914;2024-02-21T06:58:36;7.80;;;3.70;;
71606;SDS011;60641;53.556;9.914;2024-02-21T07:01:03;6.90;;;3.20;;
71606;SDS011;60641;53.556;9.914;2024-02-21T07:03:29;7.70;;;3.60;;
71606;SDS011;60641;53.556;9.914;2024-02-21T07:05:56;7.90;;;3.50;;
71606;SDS011;60641;53.556;9.914;2024-02-21T07:08:22;7.00;;;3.20;;
71606;SDS011;60641;53.556;9.914;2024-02-21T07:10:49;7.60;;;3.60;;
71606;SDS011;60641;53.556;9.914;2024-02-21T07:13:15;6.70;;;3.10;;
71606;SDS011;60641;53.556;9.914;2024-02-21T07:15:42;8.60;;;3.20;;
71606;SDS011;60641;53.556;9.914;2024-02-21T07:18:08;7.70;;;3.00;;
71606;SDS011;60641;53.556;9.914;2024-02-21T07:20:35;10.60;;;3.00;;
71606;SDS011;60641;53.556;9.914;2024-02-21T07:23:03;7.60;;;3.30;;
71606;SDS011;60641;53.556;9.914;2024-02-21T07:25:30;7.40;;;3.30;;
71606;SDS011;60641;53.556;9.914;2024-02-21T07:27:56;8.00;;;3.00;;
71606;SDS011;60641;53.556;9.914;2024-02-21T07:30:23;7.50;;;3.20;;
71606;SDS011;60641;53.556;9.914;2024-02-21T07:32:49;6.80;;;3.20;;
71606;SDS011;60641;53.556;9.914;2024-02-21T07:35:19;7.10;;;3.20;;
71606;SDS011;60641;53.556;9.914;2024-02-21T07:37:46;6.20;;;2.80;;
71606;SDS011;60641;53.556;9.914;2024-02-21T07:40:13;8.10;;;3.20;;
71606;SDS011;60641;53.556;9.914;2024-02-21T07:42:40;7.60;;;3.30;;
71606;SDS011;60641;53.556;9.914;2024-02-21T07:45:07;7.50;;;3.20;;
71606;SDS011;60641;53.556;9.914;2024-02-21T07:47:34;6.40;;;3.00;;
71606;SDS011;60641;53.556;9.914;2024-02-21T07:50:01;7.70;;;3.40;;
71606;SDS011;60641;53.556;9.914;2024-02-21T07:52:29;6.80;;;2.90;;
71606;SDS011;60641;53.556;9.914;2024-02-21T07:54:55;7.40;;;3.00;;
71606;SDS011;60641;53.556;9.914;2024-02-21T07:57:22;7.20;;;3.00;;
71606;SDS011;60641;53.556;9.914;2024-02-21T07:59:49;7.60;;;3.30;;
71606;SDS011;60641;53.556;9.914;2024-02-21T08:02:15;6.10;;;2.90;;
71606;SDS011;60641;53.556;9.914;2024-02-21T08:04:42;6.90;;;2.50;;
71606;SDS011;60641;53.556;9.914;2024-02-21T08:07:08;5.80;;;2.60;;
71606;SDS011;60641;53.556;9.914;2024-02-21T08:09:35;8.60;;;2.40;;
71606;SDS011;60641;53.556;9.914;2024-02-21T08:12:04;7.70;;;2.70;;
71606;SDS011;60641;53.556;9.914;2024-02-21T08:14:31;7.20;;;2.60;;
71606;SDS011;60641;53.556;9.914;2024-02-21T08:16:57;7.70;;;2.40;;
71606;SDS011;60641;53.556;9.914;2024-02-21T08:19:25;11.70;;;2.30;;
71606;SDS011;60641;53.556;9.914;2024-02-21T08:21:52;7.20;;;2.10;;
71606;SDS011;60641;53.556;9.914;2024-02-21T08:24:18;8.80;;;2.20;;
71606;SDS011;60641;53.556;9.914;2024-02-21T08:26:44;7.30;;;1.90;;
71606;SDS011;60641;53.556;9.914;2024-02-21T08:29:11;8.70;;;2.10;;
71606;SDS011;60641;53.556;9.914;2024-02-21T08:31:38;9.60;;;2.10;;
71606;SDS011;60641;53.556;9.914;2024-02-21T08:34:04;8.90;;;2.20;;
71606;SDS011;60641;53.556;9.914;2024-02-21T08:36:31;14.80;;;3.20;;
71606;SDS011;60641;53.556;9.914;2024-02-21T08:38:58;10.70;;;2.20;;
71606;SDS011;60641;53.556;9.914;2024-02-21T08:41:25;8.50;;;1.80;;
71606;SDS011;60641;53.556;9.914;2024-02-21T08:43:53;8.80;;;1.80;;
71606;SDS011;60641;53.556;9.914;2024-02-21T08:46:20;12.80;;;1.90;;
71606;SDS011;60641;53.556;9.914;2024-02-21T08:48:47;11.30;;;1.80;;
71606;SDS011;60641;53.556;9.914;2024-02-21T08:51:13;9.30;;;1.50;;
71606;SDS011;60641;53.556;9.914;2024-02-21T08:53:40;7.80;;;1.60;;
71606;SDS011;60641;53.556;9.914;2024-02-21T08:56:07;7.20;;;1.80;;
71606;SDS011;60641;53.556;9.914;2024-02-21T08:58:36;9.20;;;1.70;;
71606;SDS011;60641;53.556;9.914;2024-02-21T09:01:03;9.80;;;1.90;;
71606;SDS011;60641;53.556;9.914;2024-02-21T09:03:31;9.20;;;1.60;;
71606;SDS011;60641;53.556;9.914;2024-02-21T09:05:58;8.00;;;1.60;;
71606;SDS011;60641;53.556;9.914;2024-02-21T09:08:25;7.60;;;1.40;;
71606;SDS011;60641;53.556;9.914;2024-02-21T09:10:52;10.20;;;1.60;;
71606;SDS011;60641;53.556;9.914;2024-02-21T09:13:19;16.60;;;7.50;;
71606;SDS011;60641;53.556;9.914;2024-02-21T09:15:46;11.90;;;2.80;;
71606;SDS011;60641;53.556;9.914;2024-02-21T09:18:14;11.10;;;3.50;;
71606;SDS011;60641;53.556;9.914;2024-02-21T09:20:41;8.80;;;2.00;;
71606;SDS011;60641;53.556;9.914;2024-02-21T09:23:07;9.70;;;1.60;;
71606;SDS011;60641;53.556;9.914;2024-02-21T09:25:34;9.10;;;1.60;;
71606;SDS011;60641;53.556;9.914;2024-02-21T09:28:03;8.90;;;1.60;;
71606;SDS011;60641;53.556;9.914;2024-02-21T09:30:32;12.40;;;1.70;;
71606;SDS011;60641;53.556;9.914;2024-02-21T09:32:59;10.10;;;1.60;;
71606;SDS011;60641;53.556;9.914;2024-02-21T09:35:27;9.60;;;1.60;;
71606;SDS011;60641;53.556;9.914;2024-02-21T09:37:54;9.60;;;1.40;;
71606;SDS011;60641;53.556;9.914;2024-02-21T09:40:21;10.20;;;1.60;;
71606;SDS011;60641;53.556;9.914;2024-02-21T09:42:48;9.50;;;1.80;;
71606;SDS011;60641;53.556;9.914;2024-02-21T09:47:43;9.00;;;1.30;;
71606;SDS011;60641;53.556;9.914;2024-02-21T09:50:17;8.40;;;1.60;;
71606;SDS011;60641;53.556;9.914;2024-02-21T09:52:44;8.80;;;1.40;;
71606;SDS011;60641;53.556;9.914;2024-02-21T09:55:11;6.50;;;1.20;;
71606;SDS011;60641;53.556;9.914;2024-02-21T09:57:40;6.50;;;1.30;;
71606;SDS011;60641;53.556;9.914;2024-02-21T10:00:07;7.30;;;1.40;;
71606;SDS011;60641;53.556;9.914;2024-02-21T10:02:34;6.70;;;1.40;;
71606;SDS011;60641;53.556;9.914;2024-02-21T10:05:00;7.60;;;2.00;;
71606;SDS011;60641;53.556;9.914;2024-02-21T10:07:28;6.70;;;2.20;;
71606;SDS011;60641;53.556;9.914;2024-02-21T10:10:02;7.10;;;2.60;;
71606;SDS011;60641;53.556;9.914;2024-02-21T10:12:29;8.00;;;2.90;;
71606;SDS011;60641;53.556;9.914;2024-02-21T10:15:05;7.80;;;3.80;;
71606;SDS011;60641;53.556;9.914;2024-02-21T10:17:32;8.50;;;4.50;;
71606;SDS011;60641;53.556;9.914;2024-02-21T10:20:11;11.90;;;6.00;;
71606;SDS011;60641;53.556;9.914;2024-02-21T10:22:40;11.90;;;6.70;;
71606;SDS011;60641;53.556;9.914;2024-02-21T10:25:09;13.30;;;7.40;;
71606;SDS011;60641;53.556;9.914;2024-02-21T10:27:36;14.30;;;8.10;;
71606;SDS011;60641;53.556;9.914;2024-02-21T10:30:04;16.80;;;8.80;;
71606;SDS011;60641;53.556;9.914;2024-02-21T10:32:33;15.20;;;8.90;;
71606;SDS011;60641;53.556;9.914;2024-02-21T10:35:03;16.50;;;9.30;;
71606;SDS011;60641;53.556;9.914;2024-02-21T10:37:32;16.20;;;9.70;;
71606;SDS011;60641;53.556;9.914;2024-02-21T10:39:59;14.50;;;8.10;;
71606;SDS011;60641;53.556;9.914;2024-02-21T10:42:28;16.40;;;9.00;;
71606;SDS011;60641;53.556;9.914;2024-02-21T10:44:59;15.70;;;8.70;;
71606;SDS011;60641;53.556;9.914;2024-02-21T10:47:28;15.00;;;8.60;;
71606;SDS011;60641;53.556;9.914;2024-02-21T10:49:57;17.50;;;9.60;;
71606;SDS011;60641;53.556;9.914;2024-02-21T10:55:04;18.90;;;8.90;;
71606;SDS011;60641;53.556;9.914;2024-02-21T10:57:39;18.50;;;8.90;;
71606;SDS011;60641;53.556;9.914;2024-02-21T11:00:07;16.20;;;8.10;;
71606;SDS011;60641;53.556;9.914;2024-02-21T11:02:36;18.10;;;8.60;;
71606;SDS011;60641;53.556;9.914;2024-02-21T11:05:03;17.30;;;8.20;;
71606;SDS011;60641;53.556;9.914;2024-02-21T11:07:31;16.60;;;8.40;;
71606;SDS011;60641;53.556;9.914;2024-02-21T11:09:58;18.00;;;8.60;;
71606;SDS011;60641;53.556;9.914;2024-02-21T11:12:26;17.90;;;7.90;;
71606;SDS011;60641;53.556;9.914;2024-02-21T11:15:03;17.80;;;7.90;;
71606;SDS011;60641;53.556;9.914;2024-02-21T11:17:31;16.30;;;7.70;;
71606;SDS011;60641;53.556;9.914;2024-02-21T11:19:57;16.50;;;7.30;;
71606;SDS011;60641;53.556;9.914;2024-02-21T11:22:25;15.00;;;7.70;;
71606;SDS011;60641;53.556;9.914;2024-02-21T11:24:55;17.20;;;7.20;;
71606;SDS011;60641;53.556;9.914;2024-02-21T11:27:33;13.80;;;6.70;;
71606;SDS011;60641;53.556;9.914;2024-02-21T11:30:00;13.30;;;6.90;;
71606;SDS011;60641;53.556;9.914;2024-02-21T11:32:26;13.80;;;7.30;;
71606;SDS011;60641;53.556;9.914;2024-02-21T11:34:54;15.80;;;7.00;;
71606;SDS011;60641;53.556;9.914;2024-02-21T11:37:21;14.70;;;6.50;;
71606;SDS011;60641;53.556;9.914;2024-02-21T11:39:51;15.50;;;6.80;;
71606;SDS011;60641;53.556;9.914;2024-02-21T11:42:19;14.40;;;6.60;;
71606;SDS011;60641;53.556;9.914;2024-02-21T11:44:46;14.80;;;6.60;;
71606;SDS011;60641;53.556;9.914;2024-02-21T11:47:13;14.30;;;6.60;;
71606;SDS011;60641;53.556;9.914;2024-02-21T11:49:44;14.30;;;6.30;;
71606;SDS011;60641;53.556;9.914;2024-02-21T11:52:12;15.90;;;7.00;;
71606;SDS011;60641;53.556;9.914;2024-02-21T11:54:41;15.50;;;6.90;;
71606;SDS011;60641;53.556;9.914;2024-02-21T11:57:08;14.20;;;6.40;;
71606;SDS011;60641;53.556;9.914;2024-02-21T11:59:34;14.70;;;6.60;;
71606;SDS011;60641;53.556;9.914;2024-02-21T12:02:01;14.10;;;6.60;;
71606;SDS011;60641;53.556;9.914;2024-02-21T12:04:31;17.80;;;6.50;;
71606;SDS011;60641;53.556;9.914;2024-02-21T12:06:58;14.00;;;6.80;;
71606;SDS011;60641;53.556;9.914;2024-02-21T12:09:25;17.20;;;6.50;;
71606;SDS011;60641;53.556;9.914;2024-02-21T12:12:02;15.40;;;6.70;;
71606;SDS011;60641;53.556;9.914;2024-02-21T12:14:29;19.20;;;6.90;;
71606;SDS011;60641;53.556;9.914;2024-02-21T12:16:57;14.60;;;6.70;;
71606;SDS011;60641;53.556;9.914;2024-02-21T12:19:24;13.70;;;6.30;;
71606;SDS011;60641;53.556;9.914;2024-02-21T12:21:50;15.60;;;6.40;;
71606;SDS011;60641;53.556;9.914;2024-02-21T12:24:21;14.20;;;6.00;;
71606;SDS011;60641;53.556;9.914;2024-02-21T12:26:52;14.10;;;6.20;;
71606;SDS011;60641;53.556;9.914;2024-02-21T12:29:19;17.60;;;6.80;;
71606;SDS011;60641;53.556;9.914;2024-02-21T12:31:46;15.90;;;7.80;;
71606;SDS011;60641;53.556;9.914;2024-02-21T12:34:12;12.00;;;6.10;;
71606;SDS011;60641;53.556;9.914;2024-02-21T12:36:45;14.80;;;6.20;;
71606;SDS011;60641;53.556;9.914;2024-02-21T12:39:13;16.10;;;6.80;;
71606;SDS011;60641;53.556;9.914;2024-02-21T12:41:40;16.10;;;6.70;;
71606;SDS011;60641;53.556;9.914;2024-02-21T12:44:07;15.00;;;6.90;;
71606;SDS011;60641;53.556;9.914;2024-02-21T12:46:34;18.60;;;6.80;;
71606;SDS011;60641;53.556;9.914;2024-02-21T12:49:01;16.10;;;7.50;;
71606;SDS011;60641;53.556;9.914;2024-02-21T12:51:29;15.20;;;7.00;;
71606;SDS011;60641;53.556;9.914;2024-02-21T12:53:56;14.30;;;6.80;;
71606;SDS011;60641;53.556;9.914;2024-02-21T12:56:23;13.60;;;6.70;;
71606;SDS011;60641;53.556;9.914;2024-02-21T12:58:50;16.00;;;7.20;;
71606;SDS011;60641;53.556;9.914;2024-02-21T13:01:16;17.80;;;7.50;;
71606;SDS011;60641;53.556;9.914;2024-02-21T13:03:43;16.10;;;7.50;;
71606;SDS011;60641;53.556;9.914;2024-02-21T13:06:09;16.50;;;7.50;;
71606;SDS011;60641;53.556;9.914;2024-02-21T13:08:37;16.70;;;7.10;;
71606;SDS011;60641;53.556;9.914;2024-02-21T13:11:03;17.80;;;7.50;;
71606;SDS011;60641;53.556;9.914;2024-02-21T13:13:31;16.40;;;7.10;;
71606;SDS011;60641;53.556;9.914;2024-02-21T13:15:58;15.40;;;7.20;;
71606;SDS011;60641;53.556;9.914;2024-02-21T13:18:24;19.70;;;7.20;;
71606;SDS011;60641;53.556;9.914;2024-02-21T13:20:51;14.80;;;6.80;;
71606;SDS011;60641;53.556;9.914;2024-02-21T13:23:18;14.10;;;7.00;;
71606;SDS011;60641;53.556;9.914;2024-02-21T13:25:44;13.60;;;6.90;;
71606;SDS011;60641;53.556;9.914;2024-02-21T13:28:11;15.90;;;7.50;;
71606;SDS011;60641;53.556;9.914;2024-02-21T13:30:38;18.50;;;6.90;;
71606;SDS011;60641;53.556;9.914;2024-02-21T13:33:05;16.80;;;6.70;;
71606;SDS011;60641;53.556;9.914;2024-02-21T13:35:33;16.00;;;7.10;;
71606;SDS011;60641;53.556;9.914;2024-02-21T13:38:01;15.10;;;6.70;;
71606;SDS011;60641;53.556;9.914;2024-02-21T13:40:27;16.10;;;7.00;;
71606;SDS011;60641;53.556;9.914;2024-02-21T13:42:54;13.80;;;6.70;;
71606;SDS011;60641;53.556;9.914;2024-02-21T13:45:21;15.90;;;7.20;;
71606;SDS011;60641;53.556;9.914;2024-02-21T13:47:47;14.50;;;6.60;;
71606;SDS011;60641;53.556;9.914;2024-02-21T13:50:14;13.70;;;6.30;;
71606;SDS011;60641;53.556;9.914;2024-02-21T13:52:41;15.30;;;7.10;;
71606;SDS011;60641;53.556;9.914;2024-02-21T13:55:07;15.60;;;5.90;;
71606;SDS011;60641;53.556;9.914;2024-02-21T13:57:37;12.90;;;6.10;;
71606;SDS011;60641;53.556;9.914;2024-02-21T14:00:04;16.20;;;6.80;;
71606;SDS011;60641;53.556;9.914;2024-02-21T14:02:31;14.10;;;6.20;;
71606;SDS011;60641;53.556;9.914;2024-02-21T14:04:58;14.80;;;6.00;;
71606;SDS011;60641;53.556;9.914;2024-02-21T14:07:24;14.80;;;6.50;;
71606;SDS011;60641;53.556;9.914;2024-02-21T14:09:50;16.80;;;6.30;;
71606;SDS011;60641;53.556;9.914;2024-02-21T14:12:17;17.90;;;7.10;;
71606;SDS011;60641;53.556;9.914;2024-02-21T14:14:46;14.00;;;6.40;;
71606;SDS011;60641;53.556;9.914;2024-02-21T14:17:14;16.80;;;6.50;;
71606;SDS011;60641;53.556;9.914;2024-02-21T14:19:41;12.90;;;6.50;;
71606;SDS011;60641;53.556;9.914;2024-02-21T14:22:07;18.20;;;7.70;;
71606;SDS011;60641;53.556;9.914;2024-02-21T14:24:34;15.30;;;6.20;;
71606;SDS011;60641;53.556;9.914;2024-02-21T14:27:00;12.40;;;5.60;;
71606;SDS011;60641;53.556;9.914;2024-02-21T14:29:29;13.80;;;5.30;;
71606;SDS011;60641;53.556;9.914;2024-02-21T14:31:56;14.10;;;5.20;;
71606;SDS011;60641;53.556;9.914;2024-02-21T14:34:25;14.20;;;5.40;;
71606;SDS011;60641;53.556;9.914;2024-02-21T14:36:52;12.40;;;4.80;;
71606;SDS011;60641;53.556;9.914;2024-02-21T14:39:21;14.00;;;4.90;;